Terminal Aerodrome Forecast
Issued by NWS

Home | Current Version | Previous Version | Text Only | Print | Product List | Glossary On
Versions: 1 2 3 4 5 6 7 8 9 10 11 12 13 14
000
FTUS42 TJSJ 011100
TAFJSJ
TAF
TJSJ 011120Z 0112/0212 10006KT P6SM VCSH FEW025 SCT050
     FM011300 07013G20KT P6SM SCT025 SCT070
     FM012200 10006KT P6SM SCT030=

USA.gov is the U.S. government's official web portal to all federal, state and local government web resources and services.